createdAt,value
2018-05-26T00:00:41.611Z,61.20
2018-05-26T00:03:09.945Z,61.40
2018-05-26T00:05:37.452Z,61.30
2018-05-26T00:08:05.727Z,62.10
2018-05-26T00:10:34.058Z,62.50
2018-05-26T00:13:01.560Z,62.50
2018-05-26T00:15:29.841Z,63.90
2018-05-26T00:17:57.395Z,63.80
2018-05-26T00:20:24.910Z,63.50
2018-05-26T00:22:58.183Z,63.90
2018-05-26T00:25:25.694Z,63.80
2018-05-26T00:27:53.977Z,64.00
2018-05-26T00:30:22.267Z,64.80
2018-05-26T00:32:49.774Z,64.80
2018-05-26T00:35:17.318Z,65.20
2018-05-26T00:37:44.846Z,64.70
2018-05-26T00:40:12.422Z,64.40
2018-05-26T00:42:39.949Z,66.00
2018-05-26T00:45:17.198Z,65.40
2018-05-26T00:47:44.749Z,65.70
2018-05-26T00:50:12.271Z,66.00
2018-05-26T00:52:39.803Z,66.40
2018-05-26T00:55:07.343Z,66.90
2018-05-26T00:57:34.857Z,66.80
2018-05-26T01:00:02.373Z,67.70
2018-05-26T01:02:30.691Z,68.40
2018-05-26T01:04:58.243Z,68.40
2018-05-26T01:07:25.742Z,68.60
2018-05-26T01:09:53.251Z,69.10
2018-05-26T01:12:20.811Z,69.50
2018-05-26T01:14:48.346Z,69.80
2018-05-26T01:17:15.871Z,69.50
2018-05-26T01:19:43.367Z,69.90
2018-05-26T01:22:11.656Z,70.30
2018-05-26T01:24:39.176Z,70.30
2018-05-26T01:27:06.764Z,70.30
2018-05-26T01:29:34.263Z,70.10
2018-05-26T01:32:01.815Z,70.90
2018-05-26T01:34:29.339Z,71.30
2018-05-26T01:36:56.870Z,71.40
2018-05-26T01:39:24.422Z,71.40
2018-05-26T01:41:51.934Z,71.80
2018-05-26T01:44:19.463Z,71.40
2018-05-26T01:46:46.999Z,71.50
2018-05-26T01:49:14.528Z,72.20
2018-05-26T01:51:42.040Z,72.30
2018-05-26T01:54:10.413Z,72.20
2018-05-26T01:56:38.669Z,72.60
2018-05-26T01:59:06.185Z,72.60
2018-05-26T02:01:33.741Z,73.20
2018-05-26T02:04:01.344Z,73.10
2018-05-26T02:06:28.866Z,73.50
2018-05-26T02:08:56.413Z,72.90
2018-05-26T02:11:23.943Z,71.40
2018-05-26T02:14:01.959Z,72.20
2018-05-26T02:16:29.512Z,72.20
2018-05-26T02:18:57.770Z,72.90
2018-05-26T02:21:25.316Z,72.20
2018-05-26T02:23:52.828Z,72.40
2018-05-26T02:26:20.339Z,72.00
2018-05-26T02:28:47.887Z,72.50
2018-05-26T02:31:15.402Z,72.30
2018-05-26T02:33:42.911Z,72.00
2018-05-26T02:36:10.486Z,71.80
2018-05-26T02:38:38.034Z,72.00
2018-05-26T02:41:05.553Z,72.20
2018-05-26T02:43:33.078Z,73.60
2018-05-26T02:46:00.609Z,73.30
2018-05-26T02:48:28.137Z,73.40
2018-05-26T02:50:55.648Z,73.30
2018-05-26T02:53:23.168Z,74.50
2018-05-26T02:55:50.681Z,74.50
2018-05-26T02:58:18.202Z,74.70
2018-05-26T03:00:46.488Z,74.70
2018-05-26T03:03:14.758Z,75.40
2018-05-26T03:05:48.646Z,76.10
2018-05-26T03:08:21.764Z,76.20
2018-05-26T03:10:54.906Z,76.70
2018-05-26T03:13:28.001Z,77.60
2018-05-26T03:16:01.104Z,77.90
2018-05-26T03:18:28.615Z,78.30
2018-05-26T03:20:56.112Z,78.70
2018-05-26T03:23:23.631Z,79.30
2018-05-26T03:25:51.150Z,79.30
2018-05-26T03:28:19.442Z,79.90
2018-05-26T03:30:47.033Z,80.00
2018-05-26T03:33:14.546Z,80.10
2018-05-26T03:35:42.070Z,79.20
2018-05-26T03:38:09.611Z,79.90
2018-05-26T03:40:37.179Z,80.10
2018-05-26T03:43:04.708Z,80.00
2018-05-26T03:45:32.237Z,80.30
2018-05-26T03:48:00.545Z,81.40
2018-05-26T03:50:28.075Z,82.20
2018-05-26T03:52:55.639Z,81.60
2018-05-26T03:55:36.447Z,81.70
2018-05-26T03:58:15.873Z,81.80
2018-05-26T04:00:43.402Z,81.20
2018-05-26T04:03:10.911Z,82.00
2018-05-26T04:05:38.436Z,81.40
2018-05-26T04:08:05.977Z,81.60
2018-05-26T04:10:33.521Z,81.40
2018-05-26T04:13:01.067Z,81.50
2018-05-26T04:15:28.595Z,81.70
2018-05-26T04:17:56.164Z,80.30
2018-05-26T04:20:24.531Z,80.60
2018-05-26T04:22:52.044Z,80.30
2018-05-26T04:25:19.591Z,80.10
2018-05-26T04:27:47.916Z,80.10
2018-05-26T04:30:15.427Z,80.10
2018-05-26T04:32:42.951Z,80.30
2018-05-26T04:35:10.497Z,80.90
2018-05-26T04:37:38.037Z,80.30
2018-05-26T04:40:05.560Z,80.40
2018-05-26T04:42:33.864Z,81.10
2018-05-26T04:45:11.084Z,80.90
2018-05-26T04:47:38.619Z,81.50
2018-05-26T04:50:06.131Z,80.70
2018-05-26T04:52:33.642Z,80.50
2018-05-26T04:55:01.162Z,79.90
2018-05-26T04:57:28.680Z,80.50
2018-05-26T04:59:56.210Z,80.40
2018-05-26T05:02:23.741Z,80.10
2018-05-26T05:04:56.200Z,79.80
2018-05-26T05:07:24.499Z,78.30
2018-05-26T05:09:52.016Z,78.20
2018-05-26T05:12:19.547Z,77.40
2018-05-26T05:14:47.062Z,77.40
2018-05-26T05:17:14.660Z,77.60
2018-05-26T05:19:42.209Z,77.60
2018-05-26T05:22:09.767Z,77.70
2018-05-26T05:24:38.088Z,78.20
2018-05-26T05:27:05.769Z,78.20
2018-05-26T05:29:34.098Z,79.40
2018-05-26T05:32:01.636Z,79.40
2018-05-26T05:34:29.169Z,79.00
2018-05-26T05:36:56.692Z,79.60
2018-05-26T05:39:24.236Z,80.00
2018-05-26T05:41:51.774Z,79.70
2018-05-26T05:44:19.365Z,80.10
2018-05-26T05:46:46.903Z,78.00
2018-05-26T05:49:14.450Z,78.00
2018-05-26T05:51:42.020Z,77.50
2018-05-26T05:54:09.562Z,77.00
2018-05-26T05:56:37.076Z,78.00
2018-05-26T05:59:04.693Z,78.00
2018-05-26T06:01:32.135Z,78.00
2018-05-26T06:03:59.720Z,77.40
2018-05-26T06:06:27.253Z,77.60
2018-05-26T06:08:54.783Z,77.60
2018-05-26T06:11:22.286Z,76.70
2018-05-26T06:13:49.803Z,78.10
2018-05-26T06:16:18.150Z,75.50
2018-05-26T06:18:45.666Z,75.30
2018-05-26T06:21:13.190Z,76.90
2018-05-26T06:23:41.500Z,78.00
2018-05-26T06:26:09.028Z,77.90
2018-05-26T06:28:37.317Z,79.40
2018-05-26T06:31:04.911Z,79.30
2018-05-26T06:33:32.446Z,79.20
2018-05-26T06:35:59.999Z,79.70
2018-05-26T06:38:27.540Z,79.10
2018-05-26T06:40:55.109Z,77.90
2018-05-26T06:43:22.650Z,78.30
2018-05-26T06:45:50.351Z,79.50
2018-05-26T06:48:17.897Z,79.60
2018-05-26T06:50:45.582Z,79.40
2018-05-26T06:53:13.112Z,81.40
2018-05-26T06:55:40.681Z,81.80
2018-05-26T06:58:08.294Z,81.30
2018-05-26T07:00:35.892Z,79.70
2018-05-26T07:03:03.442Z,80.80
2018-05-26T07:05:30.967Z,80.80
2018-05-26T07:07:58.497Z,81.60
2018-05-26T07:10:26.079Z,79.80
2018-05-26T07:12:53.663Z,78.50
2018-05-26T07:15:21.937Z,77.90
2018-05-26T07:17:49.494Z,77.80
2018-05-26T07:20:17.806Z,77.00
2018-05-26T07:22:45.330Z,77.00
2018-05-26T07:25:12.839Z,76.40
2018-05-26T07:27:40.384Z,75.70
2018-05-26T07:30:07.906Z,75.80
2018-05-26T07:32:35.430Z,73.70
2018-05-26T07:35:02.982Z,71.90
2018-05-26T07:37:30.499Z,71.50
2018-05-26T07:39:58.138Z,70.20
2018-05-26T07:42:25.694Z,71.30
2018-05-26T07:44:53.257Z,71.30
2018-05-26T07:47:20.859Z,67.40
2018-05-26T07:49:48.291Z,66.90
2018-05-26T07:52:15.832Z,66.30
2018-05-26T07:54:53.847Z,62.70
2018-05-26T07:57:21.373Z,62.70
2018-05-26T07:59:48.886Z,63.30
2018-05-26T08:02:16.428Z,62.70
2018-05-26T08:04:43.926Z,61.40
2018-05-26T08:07:11.444Z,61.50
2018-05-26T08:09:38.984Z,61.60
2018-05-26T08:12:07.268Z,60.90
2018-05-26T08:14:34.790Z,60.80
2018-05-26T08:17:02.480Z,60.10
2018-05-26T08:19:29.988Z,59.50
2018-05-26T08:21:57.525Z,59.30
2018-05-26T08:24:25.108Z,58.70
2018-05-26T08:26:52.629Z,58.10
2018-05-26T08:29:21.041Z,57.20
2018-05-26T08:31:48.599Z,57.20
2018-05-26T08:34:16.158Z,57.30
2018-05-26T08:36:43.659Z,57.70
2018-05-26T08:39:11.569Z,57.50
2018-05-26T08:41:39.165Z,57.10
2018-05-26T08:44:06.727Z,57.10
2018-05-26T08:46:34.245Z,56.80
2018-05-26T08:49:01.816Z,55.50
2018-05-26T08:51:29.346Z,55.50
2018-05-26T08:53:56.881Z,54.90
2018-05-26T08:56:25.265Z,55.00
2018-05-26T08:58:52.818Z,54.90
2018-05-26T09:01:21.095Z,53.90
2018-05-26T09:03:49.404Z,54.90
2018-05-26T09:06:16.984Z,54.80
2018-05-26T09:08:44.522Z,53.90
2018-05-26T09:11:12.042Z,53.40
2018-05-26T09:13:40.403Z,52.90
2018-05-26T09:16:07.932Z,52.80
2018-05-26T09:18:35.446Z,52.20
2018-05-26T09:21:03.013Z,51.70
2018-05-26T09:23:30.530Z,51.00
2018-05-26T09:25:58.031Z,52.20
2018-05-26T09:28:25.605Z,49.60
2018-05-26T09:30:53.128Z,50.90
2018-05-26T09:33:20.657Z,51.10
2018-05-26T09:35:48.235Z,50.60
2018-05-26T09:38:16.578Z,49.70
2018-05-26T09:40:44.089Z,49.70
2018-05-26T09:43:11.642Z,49.80
2018-05-26T09:45:44.115Z,47.80
2018-05-26T09:48:11.683Z,47.50
2018-05-26T09:50:39.194Z,48.00
2018-05-26T09:53:06.707Z,46.50
2018-05-26T09:55:34.244Z,47.70
2018-05-26T09:58:02.611Z,48.00
2018-05-26T10:00:30.135Z,48.00
2018-05-26T10:02:57.662Z,48.00
2018-05-26T10:05:25.208Z,47.20
2018-05-26T10:07:52.778Z,47.20
2018-05-26T10:10:20.330Z,47.30
2018-05-26T10:12:47.848Z,48.30
2018-05-26T10:15:15.365Z,47.90
2018-05-26T10:17:42.908Z,49.20
2018-05-26T10:20:10.411Z,50.00
2018-05-26T10:22:37.942Z,49.20
2018-05-26T10:25:06.014Z,49.00
2018-05-26T10:27:33.684Z,49.50
2018-05-26T10:30:01.238Z,47.70
2018-05-26T10:32:28.750Z,48.20
2018-05-26T10:34:56.318Z,48.30
2018-05-26T10:37:23.871Z,49.30
2018-05-26T10:39:51.391Z,48.60
2018-05-26T10:42:18.938Z,48.30
2018-05-26T10:44:46.461Z,48.60
2018-05-26T10:47:14.034Z,48.30
2018-05-26T10:49:41.545Z,48.50
2018-05-26T10:52:09.100Z,48.70
2018-05-26T10:54:36.620Z,47.80
2018-05-26T10:57:04.166Z,47.20
2018-05-26T10:59:31.686Z,48.00
2018-05-26T11:01:59.220Z,47.30
2018-05-26T11:04:26.778Z,46.10
2018-05-26T11:06:54.269Z,44.60
2018-05-26T11:09:22.560Z,46.80
2018-05-26T11:11:50.087Z,46.80
2018-05-26T11:14:18.377Z,47.50
2018-05-26T11:16:45.934Z,47.40
2018-05-26T11:19:13.442Z,47.10
2018-05-26T11:21:40.955Z,47.00
2018-05-26T11:24:09.304Z,46.40
2018-05-26T11:26:36.818Z,46.50
2018-05-26T11:29:04.359Z,45.90
2018-05-26T11:31:31.904Z,46.10
2018-05-26T11:34:13.956Z,46.50
2018-05-26T11:36:41.491Z,46.50
2018-05-26T11:39:09.016Z,46.90
2018-05-26T11:41:37.337Z,46.60
2018-05-26T11:44:04.868Z,46.60
2018-05-26T11:46:32.389Z,46.70
2018-05-26T11:48:59.939Z,46.70
2018-05-26T11:51:27.524Z,47.10
2018-05-26T11:53:55.836Z,48.00
2018-05-26T11:56:23.379Z,47.90
2018-05-26T11:58:50.888Z,47.40
2018-05-26T12:01:18.420Z,46.80
2018-05-26T12:03:45.960Z,47.60
2018-05-26T12:06:13.462Z,47.80
2018-05-26T12:08:40.992Z,47.70
2018-05-26T12:11:08.550Z,46.30
2018-05-26T12:13:36.108Z,46.90
2018-05-26T12:16:03.679Z,46.70
2018-05-26T12:18:31.196Z,47.10
2018-05-26T12:20:58.725Z,47.30
2018-05-26T12:23:26.259Z,47.90
2018-05-26T12:25:53.792Z,48.30
2018-05-26T12:28:21.329Z,48.70
2018-05-26T12:30:48.895Z,48.40
2018-05-26T12:33:16.444Z,49.10
2018-05-26T12:35:43.990Z,47.70
2018-05-26T12:38:11.561Z,47.50
2018-05-26T12:40:39.102Z,47.80
2018-05-26T12:43:07.413Z,46.90
2018-05-26T12:45:34.941Z,46.90
2018-05-26T12:48:02.502Z,46.90
2018-05-26T12:50:30.031Z,46.10
2018-05-26T12:52:57.880Z,47.00
2018-05-26T12:55:35.106Z,46.70
2018-05-26T12:58:02.641Z,46.10
2018-05-26T13:00:30.265Z,46.20
2018-05-26T13:02:57.824Z,47.60
2018-05-26T13:05:25.552Z,46.20
2018-05-26T13:07:53.087Z,46.90
2018-05-26T13:10:20.915Z,44.50
2018-05-26T13:12:48.447Z,45.10
2018-05-26T13:15:30.352Z,45.00
2018-05-26T13:17:57.863Z,44.50
2018-05-26T13:20:26.164Z,44.00
2018-05-26T13:22:53.725Z,44.00
2018-05-26T13:25:30.999Z,44.30
2018-05-26T13:27:58.579Z,43.70
2018-05-26T13:30:26.168Z,43.70
2018-05-26T13:32:53.676Z,44.30
2018-05-26T13:35:22.098Z,44.20
2018-05-26T13:37:49.669Z,43.70
2018-05-26T13:40:17.204Z,44.40
2018-05-26T13:42:44.748Z,44.30
2018-05-26T13:45:12.396Z,43.80
2018-05-26T13:47:39.963Z,43.40
2018-05-26T13:50:07.524Z,42.70
2018-05-26T13:52:35.070Z,42.00
2018-05-26T13:55:03.727Z,40.70
2018-05-26T13:57:31.290Z,40.60
2018-05-26T13:59:58.846Z,39.90
2018-05-26T14:02:26.385Z,41.20
2018-05-26T14:04:58.901Z,39.90
2018-05-26T14:07:27.211Z,39.50
2018-05-26T14:09:54.738Z,39.50
2018-05-26T14:12:22.281Z,39.90
2018-05-26T14:14:50.631Z,39.90
2018-05-26T14:17:18.223Z,39.20
2018-05-26T14:19:45.820Z,39.40
2018-05-26T14:22:13.327Z,38.90
2018-05-26T14:24:40.934Z,40.00
2018-05-26T14:27:08.459Z,40.30
2018-05-26T14:29:36.027Z,39.50
2018-05-26T14:32:04.332Z,39.20
2018-05-26T14:34:31.899Z,39.20
2018-05-26T14:36:59.446Z,39.70
2018-05-26T14:39:27.031Z,40.90
2018-05-26T14:41:54.533Z,41.10
2018-05-26T14:44:28.038Z,39.50
2018-05-26T14:46:55.538Z,39.50
2018-05-26T14:49:23.085Z,40.00
2018-05-26T14:51:50.696Z,40.10
2018-05-26T14:54:19.104Z,42.40
2018-05-26T14:56:46.646Z,41.80
2018-05-26T14:59:14.979Z,42.30
2018-05-26T15:01:42.520Z,42.30
2018-05-26T15:04:10.106Z,42.60
2018-05-26T15:06:37.662Z,43.00
2018-05-26T15:09:05.220Z,42.40
2018-05-26T15:11:32.791Z,43.00
2018-05-26T15:14:10.083Z,42.60
2018-05-26T15:16:37.620Z,42.20
2018-05-26T15:19:05.212Z,41.70
2018-05-26T15:21:32.753Z,42.40
2018-05-26T15:24:00.287Z,42.30
2018-05-26T15:26:27.851Z,41.50
2018-05-26T15:28:55.368Z,41.70
2018-05-26T15:31:22.939Z,41.70
2018-05-26T15:33:50.500Z,41.40
2018-05-26T15:36:18.000Z,40.50
2018-05-26T15:38:46.556Z,41.00
2018-05-26T15:41:14.110Z,41.80
2018-05-26T15:43:41.655Z,42.30
2018-05-26T15:46:09.176Z,42.00
2018-05-26T15:48:37.523Z,43.00
2018-05-26T15:51:05.042Z,43.00
2018-05-26T15:53:32.542Z,43.10
2018-05-26T15:56:00.111Z,43.10
2018-05-26T15:58:27.631Z,43.50
2018-05-26T16:00:55.155Z,43.80
2018-05-26T16:03:22.735Z,44.40
2018-05-26T16:05:50.270Z,44.60
2018-05-26T16:08:17.824Z,45.10
2018-05-26T16:10:45.360Z,45.50
2018-05-26T16:13:12.895Z,45.90
2018-05-26T16:15:40.412Z,46.10
2018-05-26T16:18:07.973Z,47.20
2018-05-26T16:20:35.552Z,48.10
2018-05-26T16:23:03.076Z,47.50
2018-05-26T16:25:30.613Z,47.50
2018-05-26T16:27:58.142Z,48.00
2018-05-26T16:30:25.694Z,49.00
2018-05-26T16:32:53.207Z,49.50
2018-05-26T16:35:21.528Z,49.20
2018-05-26T16:37:49.085Z,49.20
2018-05-26T16:40:16.602Z,49.50
2018-05-26T16:42:44.143Z,49.70
2018-05-26T16:45:12.459Z,50.20
2018-05-26T16:47:40.048Z,50.20
2018-05-26T16:50:07.561Z,50.60
2018-05-26T16:52:35.106Z,51.10
2018-05-26T16:55:03.470Z,50.40
2018-05-26T16:57:31.011Z,50.40
2018-05-26T16:59:58.562Z,50.60
2018-05-26T17:02:26.950Z,51.40
2018-05-26T17:04:54.451Z,53.60
2018-05-26T17:07:22.317Z,53.80
2018-05-26T17:09:49.886Z,53.60
2018-05-26T17:12:17.399Z,55.60
2018-05-26T17:14:44.908Z,57.00
2018-05-26T17:17:12.435Z,57.00
2018-05-26T17:19:40.717Z,57.00
2018-05-26T17:22:08.295Z,56.90
2018-05-26T17:24:45.527Z,57.40
2018-05-26T17:27:13.045Z,58.00
2018-05-26T17:29:40.589Z,57.70
2018-05-26T17:32:08.132Z,57.30
2018-05-26T17:34:35.634Z,57.60
2018-05-26T17:37:03.134Z,57.40
2018-05-26T17:39:31.418Z,57.50
2018-05-26T17:41:59.739Z,57.70
2018-05-26T17:44:27.255Z,57.70
2018-05-26T17:46:55.590Z,56.30
2018-05-26T17:49:23.115Z,56.30
2018-05-26T17:51:50.638Z,55.00
2018-05-26T17:54:18.946Z,53.60
2018-05-26T17:56:46.471Z,53.60
2018-05-26T17:59:13.996Z,53.50
2018-05-26T18:01:41.539Z,53.30
2018-05-26T18:04:09.097Z,53.40
2018-05-26T18:06:36.621Z,52.50
2018-05-26T18:09:04.192Z,52.70
2018-05-26T18:11:31.723Z,53.40
2018-05-26T18:14:05.108Z,54.50
2018-05-26T18:16:32.633Z,54.50
2018-05-26T18:19:00.146Z,54.60
2018-05-26T18:21:27.664Z,55.30
2018-05-26T18:23:55.189Z,55.90
2018-05-26T18:26:22.779Z,55.40
2018-05-26T18:28:50.331Z,56.40
2018-05-26T18:31:17.872Z,57.10
2018-05-26T18:33:45.387Z,55.10
2018-05-26T18:36:12.926Z,54.30
2018-05-26T18:38:40.459Z,54.50
2018-05-26T18:41:07.990Z,54.70
2018-05-26T18:43:35.522Z,57.50
2018-05-26T18:46:03.058Z,57.90
2018-05-26T18:48:30.587Z,61.50
2018-05-26T18:50:58.117Z,62.10
2018-05-26T18:53:25.680Z,62.80
2018-05-26T18:55:53.405Z,63.00
2018-05-26T18:58:20.912Z,63.60
2018-05-26T19:00:48.518Z,64.70
2018-05-26T19:03:16.014Z,66.20
2018-05-26T19:05:53.388Z,66.30
2018-05-26T19:08:20.903Z,66.60
2018-05-26T19:10:48.426Z,66.60
2018-05-26T19:13:16.204Z,67.30
2018-05-26T19:15:43.714Z,66.90
2018-05-26T19:18:12.014Z,66.30
2018-05-26T19:20:39.596Z,66.20
2018-05-26T19:23:07.109Z,65.50
2018-05-26T19:25:34.629Z,65.60
2018-05-26T19:28:02.184Z,65.60
2018-05-26T19:30:29.700Z,65.70
2018-05-26T19:32:57.222Z,66.90
2018-05-26T19:35:24.778Z,67.40
2018-05-26T19:37:52.340Z,69.60
2018-05-26T19:40:19.867Z,64.20
2018-05-26T19:42:47.473Z,67.00
2018-05-26T19:45:15.773Z,80.70
2018-05-26T19:47:43.295Z,80.80
2018-05-26T19:50:10.859Z,87.80
2018-05-26T19:52:38.363Z,90.20
2018-05-26T19:55:05.940Z,92.30
2018-05-26T19:57:33.452Z,93.80
2018-05-26T20:00:01.756Z,94.50
2018-05-26T20:02:30.097Z,94.60
2018-05-26T20:04:57.602Z,94.60
2018-05-26T20:07:25.144Z,93.90
2018-05-26T20:09:52.704Z,92.90
2018-05-26T20:12:20.229Z,94.00
2018-05-26T20:14:48.070Z,94.40
2018-05-26T20:17:15.652Z,94.70
2018-05-26T20:19:43.985Z,94.50
2018-05-26T20:22:11.504Z,94.50
2018-05-26T20:24:39.063Z,94.10
2018-05-26T20:27:06.566Z,93.90
2018-05-26T20:29:34.183Z,93.70
2018-05-26T20:32:01.734Z,94.30
2018-05-26T20:34:29.268Z,93.20
2018-05-26T20:36:56.772Z,91.80
2018-05-26T20:41:57.109Z,94.40
2018-05-26T20:44:24.774Z,93.80
2018-05-26T20:46:52.401Z,94.30
2018-05-26T20:49:21.340Z,96.10
2018-05-26T20:51:48.942Z,96.10
2018-05-26T20:54:17.523Z,95.50
2018-05-26T20:56:45.070Z,96.10
2018-05-26T20:59:12.655Z,97.50
2018-05-26T21:01:40.167Z,96.80
2018-05-26T21:04:07.701Z,96.70
2018-05-26T21:06:35.996Z,96.70
2018-05-26T21:09:03.505Z,96.70
2018-05-26T21:11:31.084Z,97.00
2018-05-26T21:13:58.605Z,97.50
2018-05-26T21:16:26.182Z,97.60
2018-05-26T21:18:54.459Z,96.60
2018-05-26T21:21:21.998Z,97.00
2018-05-26T21:23:49.529Z,97.40
2018-05-26T21:26:17.065Z,97.10
2018-05-26T21:28:44.586Z,96.80
2018-05-26T21:31:12.904Z,97.20
2018-05-26T21:33:40.424Z,97.20
2018-05-26T21:36:07.955Z,97.70
2018-05-26T21:38:35.486Z,97.60
2018-05-26T21:41:03.001Z,97.60
2018-05-26T21:43:30.531Z,97.60
2018-05-26T21:45:58.060Z,97.90
2018-05-26T21:48:25.584Z,97.70
2018-05-26T21:50:53.129Z,97.90
2018-05-26T21:53:21.468Z,97.70
2018-05-26T21:55:48.975Z,97.70
2018-05-26T21:58:16.507Z,98.40
2018-05-26T22:00:44.032Z,97.60
2018-05-26T22:03:11.536Z,97.70
2018-05-26T22:05:39.081Z,97.20
2018-05-26T22:08:06.628Z,97.80
2018-05-26T22:10:34.182Z,98.00
2018-05-26T22:13:01.701Z,98.10
2018-05-26T22:15:29.276Z,98.40
2018-05-26T22:17:56.795Z,98.60
2018-05-26T22:20:25.092Z,98.80
2018-05-26T22:22:52.604Z,98.80
2018-05-26T22:25:20.119Z,98.10
2018-05-26T22:27:47.699Z,98.20
2018-05-26T22:30:15.215Z,97.70
2018-05-26T22:32:42.740Z,98.10
2018-05-26T22:35:11.066Z,97.80
2018-05-26T22:37:38.598Z,97.80
2018-05-26T22:40:06.153Z,97.30
2018-05-26T22:42:34.460Z,97.10
2018-05-26T22:45:01.977Z,97.10
2018-05-26T22:47:30.254Z,96.00
2018-05-26T22:49:57.793Z,96.00
2018-05-26T22:52:25.351Z,97.10
2018-05-26T22:54:52.887Z,97.70
2018-05-26T22:57:20.401Z,97.60
2018-05-26T22:59:47.922Z,97.40
2018-05-26T23:02:15.474Z,96.90
2018-05-26T23:04:42.975Z,97.10
2018-05-26T23:07:10.536Z,97.60
2018-05-26T23:09:38.112Z,97.10
2018-05-26T23:12:05.652Z,96.80
2018-05-26T23:14:33.203Z,96.10
2018-05-26T23:17:00.770Z,96.10
2018-05-26T23:19:29.036Z,96.20
2018-05-26T23:21:56.592Z,96.20
2018-05-26T23:24:24.969Z,95.40
2018-05-26T23:26:53.269Z,94.40
2018-05-26T23:29:20.787Z,94.40
2018-05-26T23:31:49.088Z,94.90
2018-05-26T23:34:16.630Z,94.90
2018-05-26T23:36:44.131Z,94.70
2018-05-26T23:39:11.691Z,94.80
2018-05-26T23:41:39.259Z,95.50
2018-05-26T23:44:06.813Z,95.20
2018-05-26T23:46:34.372Z,94.70
2018-05-26T23:49:01.907Z,94.10
2018-05-26T23:51:29.463Z,95.60
2018-05-26T23:53:56.968Z,95.50
2018-05-26T23:56:24.494Z,94.30
2018-05-26T23:58:52.018Z,93.80
